KANQ/ANQ METAR and TAF weather

Enter ICAO airport designator
Station Type Date Time Source
KANQ METAR 2020/09/18 19:35 UTC NOAA

KANQ 181935Z AUTO 02008G15KT 350V060 10SM CLR 15/01 A3030 RMK AO2


Station Type Date Time Source
KANQ Decoded METAR 2020/09/18 19:35 UTC NOAA

Station name not available
Sep 18, 2020 - 03:35 PM EDT / 2020.09.18 1935 UTC
Wind: from the NNE (020 degrees) at 9 MPH (8 KT) gusting to 17 MPH (15 KT) (direction variable):0
Visibility: 10 mile(s):0
Sky conditions: clear
Temperature: 59 F (15 C)
Dew Point: 33 F (1 C)
Relative Humidity: 38%
Pressure (altimeter): 30.3 in. Hg (1026 hPa)
ob: KANQ 181935Z AUTO 02008G15KT 350V060 10SM CLR 15/01 A3030 RMK AO2
cycle: 19

Station Type Date Time Source
KANQ TAF UTC NOAA

Error!

Example: see airport list